Marine Rouge — JG5115 — position and weather

sailwx.info

Track history (hours):
 
Tides and Currents Weather Stations Pressure Air Temp Water Temp Dewpoint Dewpoint Depression Visibility Wind Speed Wind Dir Waves Ship Positions

Marine Rouge

Last reported at 2017-May-23 05:00 UTC. Time now 2017-May-23 05:08 UTC.
Position N 35°27' E 139°39'.

Length 52 m; draft 2.8 m.

Type: Passenger vessel. MMSI: 431000518.

Date/timePositionNaut miles runAvg speedWind from/ knotsBaromVisibWave heightAir tempDewpointWater temp
2017-May-23 05:00N 35°27' E 139°39'0 0.0
2017-May-23 04:30N 35°27' E 139°39'3 5.8
2017-May-23 04:00N 35°27' E 139°43'3 6.5
2017-May-23 03:30N 35°27' E 139°39'1 1.0
2017-May-23 03:00N 35°27' E 139°39'0 0.0
2017-May-23 02:30N 35°27' E 139°39'0 0.0
2017-May-23 02:00N 35°27' E 139°39'0 0.0
2017-May-22 11:56N 35°27' E 139°39'2 3.6
2017-May-22 11:30N 35°28' E 139°40'2 4.5
2017-May-22 11:00N 35°26' E 139°42'3 5.7
2017-May-22 10:30N 35°27' E 139°39'1 1.2
2017-May-22 10:00N 35°27' E 139°39'0 0.0
2017-May-22 09:30N 35°27' E 139°39'0 0.0
2017-May-22 09:00N 35°27' E 139°39'0 0.0
2017-May-22 08:30N 35°27' E 139°39'1 2.0
2017-May-22 08:01N 35°28' E 139°39'3 5.9
2017-May-22 07:30N 35°28' E 139°42'3 5.7
2017-May-22 07:00N 35°27' E 139°39'0 0.0
2017-May-22 06:30N 35°27' E 139°39'3 5.8
2017-May-22 06:00N 35°28' E 139°42'3 5.8
2017-May-22 05:30N 35°27' E 139°39'0 0.0
2017-May-22 05:00N 35°27' E 139°39'0 0.0
2017-May-22 04:30N 35°27' E 139°39'3 6.0
2017-May-22 04:00N 35°28' E 139°43'3 6.5
2017-May-22 03:30N 35°27' E 139°39'1 1.0
2017-May-22 03:00N 35°27' E 139°39'0 0.0
2017-May-22 02:30N 35°27' E 139°39'0 0.0
2017-May-22 02:00N 35°27' E 139°39'0 0.0
2017-May-22 01:30N 35°27' E 139°39'0 0.0
2017-May-22 01:00N 35°27' E 139°39'0 0.0
2017-May-22 00:30N 35°27' E 139°39'0 0.0
2017-May-21 11:58N 35°27' E 139°39'1 1.9
2017-May-21 11:30N 35°28' E 139°39'2 4.8
2017-May-21 11:00N 35°28' E 139°42'2 4.3
2017-May-21 10:30N 35°27' E 139°40'1 1.7
2017-May-21 10:00N 35°27' E 139°39'0 0.0
2017-May-21 09:30N 35°27' E 139°39'0 0.0
2017-May-21 09:00N 35°27' E 139°39'0 0.0
2017-May-21 08:30N 35°27' E 139°39'1 2.5
2017-May-21 08:00N 35°28' E 139°40'3 5.0
2017-May-21 07:31N 35°26' E 139°42'3 5.1
2017-May-21 07:00N 35°27' E 139°39'0 0.0
2017-May-21 06:30N 35°27' E 139°39'3 5.6
2017-May-21 06:00N 35°28' E 139°42'3 5.6
2017-May-21 05:30N 35°27' E 139°39'0 0.0
2017-May-21 05:00N 35°27' E 139°39'0 0.0
2017-May-21 04:30N 35°27' E 139°39'2 4.0
2017-May-21 04:00N 35°28' E 139°41'3 5.0
2017-May-21 03:30N 35°27' E 139°43'3 6.7
2017-May-21 03:00N 35°27' E 139°39'0 0.0
2017-May-21 02:30N 35°27' E 139°39'1 2.8
2017-May-21 02:01N 35°28' E 139°40'1 1.0
2017-May-21 01:30N 35°27' E 139°40'1 1.9
2017-May-21 01:00N 35°27' E 139°39'0 0.0
2017-May-21 00:30N 35°27' E 139°39'0 0.0
2017-May-20 12:33N 35°27' E 139°39'0 1.2
2017-May-20 12:31N 35°27' E 139°39'0 0.1
2017-May-20 12:01N 35°27' E 139°39'1 1.8
2017-May-20 11:30N 35°28' E 139°39'3 5.9
2017-May-20 11:01N 35°27' E 139°43'2 4.8
2017-May-20 10:30N 35°27' E 139°40'1 1.7
2017-May-20 10:00N 35°27' E 139°39'0 0.0
2017-May-20 09:31N 35°27' E 139°39'0 0.0
2017-May-20 09:01N 35°27' E 139°39'0 0.0
2017-May-20 08:31N 35°27' E 139°39'3 6.0
2017-May-20 08:01N 35°28' E 139°42'2 4.1
2017-May-20 07:31N 35°27' E 139°40'1 2.0
2017-May-20 07:01N 35°27' E 139°39'0 0.0
2017-May-20 06:31N 35°27' E 139°39'1 1.9
2017-May-20 06:01N 35°28' E 139°39'1 1.9
2017-May-20 05:31N 35°27' E 139°39'0 0.0
2017-May-20 05:01N 35°27' E 139°39'0 0.0
2017-May-20 04:31N 35°27' E 139°39'2 4.2
2017-May-20 04:01N 35°28' E 139°41'1 2.2
2017-May-20 03:31N 35°27' E 139°40'1 2.3
2017-May-20 03:01N 35°27' E 139°39'0 0.0
2017-May-20 02:31N 35°27' E 139°39'2 3.6
2017-May-20 02:00N 35°28' E 139°41'1 1.8
2017-May-20 01:30N 35°28' E 139°40'1 1.8
2017-May-20 01:00N 35°27' E 139°39'0 0.1
2017-May-20 00:31N 35°27' E 139°39'0 0.0
2017-May-19 12:32N 35°27' E 139°39'0 0.2
2017-May-19 12:31N 35°27' E 139°39'0 0.0
2017-May-19 12:01N 35°27' E 139°39'1 1.8
2017-May-19 11:30N 35°28' E 139°39'3 5.6
2017-May-19 11:01N 35°27' E 139°43'3 6.4
2017-May-19 10:31N 35°27' E 139°39'0 1.0
2017-May-19 10:01N 35°27' E 139°39'0 0.0
2017-May-19 09:30N 35°27' E 139°39'0 0.0
2017-May-19 09:01N 35°27' E 139°39'0 0.0
2017-May-19 08:31N 35°27' E 139°39'2 3.1
2017-May-19 08:00N 35°28' E 139°40'2 4.3
2017-May-19 07:31N 35°27' E 139°42'3 5.1
2017-May-19 07:01N 35°27' E 139°39'0 0.0
2017-May-19 06:30N 35°27' E 139°39'3 5.9
2017-May-19 06:01N 35°28' E 139°42'3 5.9
2017-May-19 05:30N 35°27' E 139°39'0 0.0
2017-May-19 05:01N 35°27' E 139°39'0 0.0
2017-May-19 04:31N 35°27' E 139°39'3 5.6
2017-May-19 04:01N 35°28' E 139°42'3 5.5
2017-May-19 03:31N 35°27' E 139°39'1 1.1
2017-May-19 03:01N 35°27' E 139°39'0 0.0
2017-May-19 02:31N 35°27' E 139°39'0 0.0
2017-May-19 02:01N 35°27' E 139°39'0 0.0
2017-May-19 01:31N 35°27' E 139°39'0 0.1
2017-May-19 01:01N 35°27' E 139°39'0 0.2
2017-May-19 00:30N 35°27' E 139°39'0 0.0
2017-May-18 12:32N 35°27' E 139°39'0 0.0
2017-May-18 12:30N 35°27' E 139°39'0 0.0
2017-May-18 12:00N 35°27' E 139°39'2 4.6
2017-May-18 11:30N 35°28' E 139°41'2 4.0
2017-May-18 11:00N 35°28' E 139°39'1 1.1
2017-May-18 10:30N 35°27' E 139°39'1 1.0
2017-May-18 10:00N 35°27' E 139°39'0 0.0
2017-May-18 09:30N 35°27' E 139°39'0 0.0
2017-May-18 09:00N 35°27' E 139°39'0 0.0
2017-May-18 08:30N 35°27' E 139°39'3 5.6
2017-May-18 08:00N 35°28' E 139°42'3 5.2
2017-May-18 07:30N 35°27' E 139°39'1 1.5
2017-May-18 07:00N 35°27' E 139°39'0 0.0
2017-May-18 06:30N 35°27' E 139°39'1 1.1
2017-May-18 06:00N 35°27' E 139°39'1 1.1
2017-May-18 05:30N 35°27' E 139°39'0 0.0
2017-May-18 05:00N 35°27' E 139°39'0 0.0
2017-May-18 04:30N 35°27' E 139°39'3 5.4
2017-May-18 04:01N 35°28' E 139°42'3 5.2
2017-May-18 03:31N 35°27' E 139°39'1 1.2
2017-May-18 03:00N 35°27' E 139°39'0 0.0
2017-May-18 02:30N 35°27' E 139°39'0 0.0
2017-May-18 02:00N 35°27' E 139°39'0 0.0
2017-May-18 01:30N 35°27' E 139°39'0 0.0
2017-May-18 01:00N 35°27' E 139°39'0 0.0
2017-May-17 12:16N 35°27' E 139°39'1 3.8
2017-May-17 12:00N 35°27' E 139°38'1 1.1
2017-May-17 11:30N 35°28' E 139°39'1 2.4
2017-May-17 11:00N 35°28' E 139°40'2 5.0
2017-May-17 10:30N 35°27' E 139°43'3 5.9
2017-May-17 10:00N 35°27' E 139°39'1 1.9
2017-May-17 09:30N 35°27' E 139°38'1 1.8
2017-May-17 09:01N 35°27' E 139°39'0 0.3
2017-May-17 08:30N 35°27' E 139°39'0 0.0
2017-May-17 08:00N 35°27' E 139°39'3 5.5
2017-May-17 07:30N 35°28' E 139°42'3 5.5
2017-May-17 07:00N 35°27' E 139°39'0 0.0
2017-May-17 06:30N 35°27' E 139°39'3 5.6
2017-May-17 06:00N 35°28' E 139°42'3 5.6
2017-May-17 05:30N 35°27' E 139°39'0 0.0
2017-May-17 05:00N 35°27' E 139°39'0 0.0
2017-May-17 04:30N 35°27' E 139°39'2 4.9
2017-May-17 04:00N 35°28' E 139°41'2 4.9
2017-May-17 03:30N 35°27' E 139°39'1 1.1
2017-May-17 03:00N 35°27' E 139°39'0 0.0
2017-May-17 02:30N 35°27' E 139°39'0 0.0
2017-May-17 02:00N 35°27' E 139°39'0 0.0
2017-May-17 01:30N 35°27' E 139°39'0 0.0
2017-May-17 01:00N 35°27' E 139°39'0 0.0
2017-May-17 00:30N 35°27' E 139°39'0 0.0
2017-May-16 11:59N 35°27' E 139°39'1 2.8
2017-May-16 11:30N 35°28' E 139°40'2 5.0
2017-May-16 11:00N 35°26' E 139°42'3 6.2
2017-May-16 10:30N 35°27' E 139°39'0 1.0
2017-May-16 10:01N 35°27' E 139°39'0 0.0
2017-May-16 09:31N 35°27' E 139°39'0 0.0
2017-May-16 09:00N 35°27' E 139°39'0 0.0
2017-May-16 08:31N 35°27' E 139°39'3 5.6
2017-May-16 08:00N 35°27' E 139°42'3 6.2
2017-May-16 07:31N 35°27' E 139°39'1 1.0
2017-May-16 07:01N 35°27' E 139°39'0 0.0
2017-May-16 06:31N 35°27' E 139°39'3 5.8
2017-May-16 06:00N 35°28' E 139°43'3 5.8
2017-May-16 05:31N 35°27' E 139°39'0 0.0
2017-May-16 05:01N 35°27' E 139°39'0 0.0
2017-May-16 04:30N 35°27' E 139°39'3 5.6
2017-May-16 04:01N 35°28' E 139°42'3 5.4
2017-May-16 03:30N 35°27' E 139°39'1 1.2
2017-May-16 03:00N 35°27' E 139°39'0 0.0
2017-May-16 02:31N 35°27' E 139°39'0 0.0
2017-May-16 02:00N 35°27' E 139°39'0 0.0
2017-May-16 01:31N 35°27' E 139°39'0 0.0
2017-May-16 01:00N 35°27' E 139°39'0 0.0
2017-May-15 11:54N 35°27' E 139°39'1 2.4
2017-May-15 11:30N 35°28' E 139°40'2 5.0
2017-May-15 11:01N 35°27' E 139°43'3 6.3
2017-May-15 10:30N 35°27' E 139°39'1 1.1
2017-May-15 10:00N 35°27' E 139°39'0 0.0
2017-May-15 09:30N 35°27' E 139°39'0 0.0
2017-May-15 09:00N 35°27' E 139°39'0 0.0
2017-May-15 08:30N 35°27' E 139°39'3 5.6
2017-May-15 08:00N 35°28' E 139°42'3 5.6
2017-May-15 07:30N 35°27' E 139°39'1 1.1
2017-May-15 07:00N 35°27' E 139°39'0 0.0
2017-May-15 06:30N 35°27' E 139°39'3 5.7
2017-May-15 06:01N 35°28' E 139°42'3 5.6
2017-May-15 05:30N 35°27' E 139°39'0 0.0
2017-May-15 05:00N 35°27' E 139°39'1 2.2
2017-May-15 04:30N 35°28' E 139°40'1 1.6
2017-May-15 04:00N 35°27' E 139°41'1 2.9
2017-May-15 03:30N 35°27' E 139°39'1 1.1
2017-May-15 03:00N 35°27' E 139°39'0 0.0
2017-May-15 02:30N 35°27' E 139°39'0 0.0
2017-May-15 02:00N 35°27' E 139°39'0 0.0
2017-May-15 01:30N 35°27' E 139°39'0 0.0
2017-May-15 01:00N 35°27' E 139°39'0 0.0
2017-May-15 00:30N 35°27' E 139°39'0 0.0
2017-May-14 12:36N 35°27' E 139°39'1 5.0
2017-May-14 12:30N 35°27' E 139°39'1 1.0
2017-May-14 12:00N 35°27' E 139°39'1 1.5
2017-May-14 11:30N 35°27' E 139°39'3 5.9
2017-May-14 11:00N 35°27' E 139°43'3 6.6
2017-May-14 10:30N 35°27' E 139°39'1 1.0
2017-May-14 10:00N 35°27' E 139°39'0 0.0
2017-May-14 09:30N 35°27' E 139°39'0 0.0
2017-May-14 09:00N 35°27' E 139°39'0 0.0
2017-May-14 08:30N 35°27' E 139°39'3 5.6
2017-May-14 08:00N 35°28' E 139°42'3 5.9
2017-May-14 07:30N 35°27' E 139°39'1 1.0
2017-May-14 07:00N 35°27' E 139°39'0 0.0
2017-May-14 06:30N 35°27' E 139°39'3 5.8
2017-May-14 06:00N 35°28' E 139°42'3 5.8
2017-May-14 05:30N 35°27' E 139°39'0 0.0
2017-May-14 05:00N 35°27' E 139°39'0 0.0
2017-May-14 04:30N 35°27' E 139°39'1 2.0
2017-May-14 04:00N 35°28' E 139°39'3 5.5
2017-May-14 03:30N 35°28' E 139°42'3 5.5
2017-May-14 03:00N 35°27' E 139°39'0 0.0
2017-May-14 02:30N 35°27' E 139°39'0 0.0
2017-May-14 02:00N 35°27' E 139°39'0 0.0
2017-May-14 01:30N 35°27' E 139°39'0 0.0
2017-May-14 01:00N 35°27' E 139°39'0 0.0
2017-May-14 00:30N 35°27' E 139°39'0 0.0
2017-May-13 12:40N 35°27' E 139°39'1 3.1
2017-May-13 12:30N 35°27' E 139°39'1 1.0
2017-May-13 12:00N 35°27' E 139°39'3 5.6
2017-May-13 11:31N 35°28' E 139°42'3 6.1
2017-May-13 11:00N 35°28' E 139°39'0 1.0
2017-May-13 10:31N 35°27' E 139°39'1 1.0
2017-May-13 10:00N 35°27' E 139°39'0 0.0
2017-May-13 09:30N 35°27' E 139°39'0 0.0
2017-May-13 09:00N 35°27' E 139°39'0 0.0
2017-May-13 08:31N 35°27' E 139°39'3 5.5
2017-May-13 08:01N 35°28' E 139°42'3 5.2
2017-May-13 07:30N 35°27' E 139°39'1 1.3
2017-May-13 07:00N 35°27' E 139°39'0 0.0
2017-May-13 06:30N 35°27' E 139°39'3 5.7
2017-May-13 06:00N 35°28' E 139°42'3 5.7
2017-May-13 05:31N 35°27' E 139°39'0 0.0
2017-May-13 05:00N 35°27' E 139°39'  
Track history (hours):
 
Tides and Currents Weather Stations Pressure Air Temp Water Temp Dewpoint Dewpoint Depression Visibility Wind Speed Wind Dir Waves Ship Positions

Marine Rouge

Last reported at 2017-May-23 05:00 UTC. Time now 2017-May-23 05:08 UTC.
Position N 35°27' E 139°39'.

Length 52 m; draft 2.8 m.

Type: Passenger vessel. MMSI: 431000518.

Date/timePositionNaut miles runAvg speedWind from/ knotsBaromVisibWave heightAir tempDewpointWater temp
2017-May-23 05:00N 35°27' E 139°39'0 0.0
2017-May-23 04:30N 35°27' E 139°39'3 5.8
2017-May-23 04:00N 35°27' E 139°43'3 6.5
2017-May-23 03:30N 35°27' E 139°39'1 1.0
2017-May-23 03:00N 35°27' E 139°39'0 0.0
2017-May-23 02:30N 35°27' E 139°39'0 0.0
2017-May-23 02:00N 35°27' E 139°39'0 0.0
2017-May-22 11:56N 35°27' E 139°39'2 3.6
2017-May-22 11:30N 35°28' E 139°40'2 4.5
2017-May-22 11:00N 35°26' E 139°42'3 5.7
2017-May-22 10:30N 35°27' E 139°39'1 1.2
2017-May-22 10:00N 35°27' E 139°39'0 0.0
2017-May-22 09:30N 35°27' E 139°39'0 0.0
2017-May-22 09:00N 35°27' E 139°39'0 0.0
2017-May-22 08:30N 35°27' E 139°39'1 2.0
2017-May-22 08:01N 35°28' E 139°39'3 5.9
2017-May-22 07:30N 35°28' E 139°42'3 5.7
2017-May-22 07:00N 35°27' E 139°39'0 0.0
2017-May-22 06:30N 35°27' E 139°39'3 5.8
2017-May-22 06:00N 35°28' E 139°42'3 5.8
2017-May-22 05:30N 35°27' E 139°39'0 0.0
2017-May-22 05:00N 35°27' E 139°39'0 0.0
2017-May-22 04:30N 35°27' E 139°39'3 6.0
2017-May-22 04:00N 35°28' E 139°43'3 6.5
2017-May-22 03:30N 35°27' E 139°39'1 1.0
2017-May-22 03:00N 35°27' E 139°39'0 0.0
2017-May-22 02:30N 35°27' E 139°39'0 0.0
2017-May-22 02:00N 35°27' E 139°39'0 0.0
2017-May-22 01:30N 35°27' E 139°39'0 0.0
2017-May-22 01:00N 35°27' E 139°39'0 0.0
2017-May-22 00:30N 35°27' E 139°39'0 0.0
2017-May-21 11:58N 35°27' E 139°39'1 1.9
2017-May-21 11:30N 35°28' E 139°39'2 4.8
2017-May-21 11:00N 35°28' E 139°42'2 4.3
2017-May-21 10:30N 35°27' E 139°40'1 1.7
2017-May-21 10:00N 35°27' E 139°39'0 0.0
2017-May-21 09:30N 35°27' E 139°39'0 0.0
2017-May-21 09:00N 35°27' E 139°39'0 0.0
2017-May-21 08:30N 35°27' E 139°39'1 2.5
2017-May-21 08:00N 35°28' E 139°40'3 5.0
2017-May-21 07:31N 35°26' E 139°42'3 5.1
2017-May-21 07:00N 35°27' E 139°39'0 0.0
2017-May-21 06:30N 35°27' E 139°39'3 5.6
2017-May-21 06:00N 35°28' E 139°42'3 5.6
2017-May-21 05:30N 35°27' E 139°39'0 0.0
2017-May-21 05:00N 35°27' E 139°39'0 0.0
2017-May-21 04:30N 35°27' E 139°39'2 4.0
2017-May-21 04:00N 35°28' E 139°41'3 5.0
2017-May-21 03:30N 35°27' E 139°43'3 6.7
2017-May-21 03:00N 35°27' E 139°39'0 0.0
2017-May-21 02:30N 35°27' E 139°39'1 2.8
2017-May-21 02:01N 35°28' E 139°40'1 1.0
2017-May-21 01:30N 35°27' E 139°40'1 1.9
2017-May-21 01:00N 35°27' E 139°39'0 0.0
2017-May-21 00:30N 35°27' E 139°39'0 0.0
2017-May-20 12:33N 35°27' E 139°39'0 1.2
2017-May-20 12:31N 35°27' E 139°39'0 0.1
2017-May-20 12:01N 35°27' E 139°39'1 1.8
2017-May-20 11:30N 35°28' E 139°39'3 5.9
2017-May-20 11:01N 35°27' E 139°43'2 4.8
2017-May-20 10:30N 35°27' E 139°40'1 1.7
2017-May-20 10:00N 35°27' E 139°39'0 0.0
2017-May-20 09:31N 35°27' E 139°39'0 0.0
2017-May-20 09:01N 35°27' E 139°39'0 0.0
2017-May-20 08:31N 35°27' E 139°39'3 6.0
2017-May-20 08:01N 35°28' E 139°42'2 4.1
2017-May-20 07:31N 35°27' E 139°40'1 2.0
2017-May-20 07:01N 35°27' E 139°39'0 0.0
2017-May-20 06:31N 35°27' E 139°39'1 1.9
2017-May-20 06:01N 35°28' E 139°39'1 1.9
2017-May-20 05:31N 35°27' E 139°39'0 0.0
2017-May-20 05:01N 35°27' E 139°39'0 0.0
2017-May-20 04:31N 35°27' E 139°39'2 4.2
2017-May-20 04:01N 35°28' E 139°41'1 2.2
2017-May-20 03:31N 35°27' E 139°40'1 2.3
2017-May-20 03:01N 35°27' E 139°39'0 0.0
2017-May-20 02:31N 35°27' E 139°39'2 3.6
2017-May-20 02:00N 35°28' E 139°41'1 1.8
2017-May-20 01:30N 35°28' E 139°40'1 1.8
2017-May-20 01:00N 35°27' E 139°39'0 0.1
2017-May-20 00:31N 35°27' E 139°39'0 0.0
2017-May-19 12:32N 35°27' E 139°39'0 0.2
2017-May-19 12:31N 35°27' E 139°39'0 0.0
2017-May-19 12:01N 35°27' E 139°39'1 1.8
2017-May-19 11:30N 35°28' E 139°39'3 5.6
2017-May-19 11:01N 35°27' E 139°43'3 6.4
2017-May-19 10:31N 35°27' E 139°39'0 1.0
2017-May-19 10:01N 35°27' E 139°39'0 0.0
2017-May-19 09:30N 35°27' E 139°39'0 0.0
2017-May-19 09:01N 35°27' E 139°39'0 0.0
2017-May-19 08:31N 35°27' E 139°39'2 3.1
2017-May-19 08:00N 35°28' E 139°40'2 4.3
2017-May-19 07:31N 35°27' E 139°42'3 5.1
2017-May-19 07:01N 35°27' E 139°39'0 0.0
2017-May-19 06:30N 35°27' E 139°39'3 5.9
2017-May-19 06:01N 35°28' E 139°42'3 5.9
2017-May-19 05:30N 35°27' E 139°39'0 0.0
2017-May-19 05:01N 35°27' E 139°39'0 0.0
2017-May-19 04:31N 35°27' E 139°39'3 5.6
2017-May-19 04:01N 35°28' E 139°42'3 5.5
2017-May-19 03:31N 35°27' E 139°39'1 1.1
2017-May-19 03:01N 35°27' E 139°39'0 0.0
2017-May-19 02:31N 35°27' E 139°39'0 0.0
2017-May-19 02:01N 35°27' E 139°39'0 0.0
2017-May-19 01:31N 35°27' E 139°39'0 0.1
2017-May-19 01:01N 35°27' E 139°39'0 0.2
2017-May-19 00:30N 35°27' E 139°39'0 0.0
2017-May-18 12:32N 35°27' E 139°39'0 0.0
2017-May-18 12:30N 35°27' E 139°39'0 0.0
2017-May-18 12:00N 35°27' E 139°39'2 4.6
2017-May-18 11:30N 35°28' E 139°41'2 4.0
2017-May-18 11:00N 35°28' E 139°39'1 1.1
2017-May-18 10:30N 35°27' E 139°39'1 1.0
2017-May-18 10:00N 35°27' E 139°39'0 0.0
2017-May-18 09:30N 35°27' E 139°39'0 0.0
2017-May-18 09:00N 35°27' E 139°39'0 0.0
2017-May-18 08:30N 35°27' E 139°39'3 5.6
2017-May-18 08:00N 35°28' E 139°42'3 5.2
2017-May-18 07:30N 35°27' E 139°39'1 1.5
2017-May-18 07:00N 35°27' E 139°39'0 0.0
2017-May-18 06:30N 35°27' E 139°39'1 1.1
2017-May-18 06:00N 35°27' E 139°39'1 1.1
2017-May-18 05:30N 35°27' E 139°39'0 0.0
2017-May-18 05:00N 35°27' E 139°39'0 0.0
2017-May-18 04:30N 35°27' E 139°39'3 5.4
2017-May-18 04:01N 35°28' E 139°42'3 5.2
2017-May-18 03:31N 35°27' E 139°39'1 1.2
2017-May-18 03:00N 35°27' E 139°39'0 0.0
2017-May-18 02:30N 35°27' E 139°39'0 0.0
2017-May-18 02:00N 35°27' E 139°39'0 0.0
2017-May-18 01:30N 35°27' E 139°39'0 0.0
2017-May-18 01:00N 35°27' E 139°39'0 0.0
2017-May-17 12:16N 35°27' E 139°39'1 3.8
2017-May-17 12:00N 35°27' E 139°38'1 1.1
2017-May-17 11:30N 35°28' E 139°39'1 2.4
2017-May-17 11:00N 35°28' E 139°40'2 5.0
2017-May-17 10:30N 35°27' E 139°43'3 5.9
2017-May-17 10:00N 35°27' E 139°39'1 1.9
2017-May-17 09:30N 35°27' E 139°38'1 1.8
2017-May-17 09:01N 35°27' E 139°39'0 0.3
2017-May-17 08:30N 35°27' E 139°39'0 0.0
2017-May-17 08:00N 35°27' E 139°39'3 5.5
2017-May-17 07:30N 35°28' E 139°42'3 5.5
2017-May-17 07:00N 35°27' E 139°39'0 0.0
2017-May-17 06:30N 35°27' E 139°39'3 5.6
2017-May-17 06:00N 35°28' E 139°42'3 5.6
2017-May-17 05:30N 35°27' E 139°39'0 0.0
2017-May-17 05:00N 35°27' E 139°39'0 0.0
2017-May-17 04:30N 35°27' E 139°39'2 4.9
2017-May-17 04:00N 35°28' E 139°41'2 4.9
2017-May-17 03:30N 35°27' E 139°39'1 1.1
2017-May-17 03:00N 35°27' E 139°39'0 0.0
2017-May-17 02:30N 35°27' E 139°39'0 0.0
2017-May-17 02:00N 35°27' E 139°39'0 0.0
2017-May-17 01:30N 35°27' E 139°39'0 0.0
2017-May-17 01:00N 35°27' E 139°39'0 0.0
2017-May-17 00:30N 35°27' E 139°39'0 0.0
2017-May-16 11:59N 35°27' E 139°39'1 2.8
2017-May-16 11:30N 35°28' E 139°40'2 5.0
2017-May-16 11:00N 35°26' E 139°42'3 6.2
2017-May-16 10:30N 35°27' E 139°39'0 1.0
2017-May-16 10:01N 35°27' E 139°39'0 0.0
2017-May-16 09:31N 35°27' E 139°39'0 0.0
2017-May-16 09:00N 35°27' E 139°39'0 0.0
2017-May-16 08:31N 35°27' E 139°39'3 5.6
2017-May-16 08:00N 35°27' E 139°42'3 6.2
2017-May-16 07:31N 35°27' E 139°39'1 1.0
2017-May-16 07:01N 35°27' E 139°39'0 0.0
2017-May-16 06:31N 35°27' E 139°39'3 5.8
2017-May-16 06:00N 35°28' E 139°43'3 5.8
2017-May-16 05:31N 35°27' E 139°39'0 0.0
2017-May-16 05:01N 35°27' E 139°39'0 0.0
2017-May-16 04:30N 35°27' E 139°39'3 5.6
2017-May-16 04:01N 35°28' E 139°42'3 5.4
2017-May-16 03:30N 35°27' E 139°39'1 1.2
2017-May-16 03:00N 35°27' E 139°39'0 0.0
2017-May-16 02:31N 35°27' E 139°39'0 0.0
2017-May-16 02:00N 35°27' E 139°39'0 0.0
2017-May-16 01:31N 35°27' E 139°39'0 0.0
2017-May-16 01:00N 35°27' E 139°39'0 0.0
2017-May-15 11:54N 35°27' E 139°39'1 2.4
2017-May-15 11:30N 35°28' E 139°40'2 5.0
2017-May-15 11:01N 35°27' E 139°43'3 6.3
2017-May-15 10:30N 35°27' E 139°39'1 1.1
2017-May-15 10:00N 35°27' E 139°39'0 0.0
2017-May-15 09:30N 35°27' E 139°39'0 0.0
2017-May-15 09:00N 35°27' E 139°39'0 0.0
2017-May-15 08:30N 35°27' E 139°39'3 5.6
2017-May-15 08:00N 35°28' E 139°42'3 5.6
2017-May-15 07:30N 35°27' E 139°39'1 1.1
2017-May-15 07:00N 35°27' E 139°39'0 0.0
2017-May-15 06:30N 35°27' E 139°39'3 5.7
2017-May-15 06:01N 35°28' E 139°42'3 5.6
2017-May-15 05:30N 35°27' E 139°39'0 0.0
2017-May-15 05:00N 35°27' E 139°39'1 2.2
2017-May-15 04:30N 35°28' E 139°40'1 1.6
2017-May-15 04:00N 35°27' E 139°41'1 2.9
2017-May-15 03:30N 35°27' E 139°39'1 1.1
2017-May-15 03:00N 35°27' E 139°39'0 0.0
2017-May-15 02:30N 35°27' E 139°39'0 0.0
2017-May-15 02:00N 35°27' E 139°39'0 0.0
2017-May-15 01:30N 35°27' E 139°39'0 0.0
2017-May-15 01:00N 35°27' E 139°39'0 0.0
2017-May-15 00:30N 35°27' E 139°39'0 0.0
2017-May-14 12:36N 35°27' E 139°39'1 5.0
2017-May-14 12:30N 35°27' E 139°39'1 1.0
2017-May-14 12:00N 35°27' E 139°39'1 1.5
2017-May-14 11:30N 35°27' E 139°39'3 5.9
2017-May-14 11:00N 35°27' E 139°43'3 6.6
2017-May-14 10:30N 35°27' E 139°39'1 1.0
2017-May-14 10:00N 35°27' E 139°39'0 0.0
2017-May-14 09:30N 35°27' E 139°39'0 0.0
2017-May-14 09:00N 35°27' E 139°39'0 0.0
2017-May-14 08:30N 35°27' E 139°39'3 5.6
2017-May-14 08:00N 35°28' E 139°42'3 5.9
2017-May-14 07:30N 35°27' E 139°39'1 1.0
2017-May-14 07:00N 35°27' E 139°39'0 0.0
2017-May-14 06:30N 35°27' E 139°39'3 5.8
2017-May-14 06:00N 35°28' E 139°42'3 5.8
2017-May-14 05:30N 35°27' E 139°39'0 0.0
2017-May-14 05:00N 35°27' E 139°39'0 0.0
2017-May-14 04:30N 35°27' E 139°39'1 2.0
2017-May-14 04:00N 35°28' E 139°39'3 5.5
2017-May-14 03:30N 35°28' E 139°42'3 5.5
2017-May-14 03:00N 35°27' E 139°39'0 0.0
2017-May-14 02:30N 35°27' E 139°39'0 0.0
2017-May-14 02:00N 35°27' E 139°39'0 0.0
2017-May-14 01:30N 35°27' E 139°39'0 0.0
2017-May-14 01:00N 35°27' E 139°39'0 0.0
2017-May-14 00:30N 35°27' E 139°39'0 0.0
2017-May-13 12:40N 35°27' E 139°39'1 3.1
2017-May-13 12:30N 35°27' E 139°39'1 1.0
2017-May-13 12:00N 35°27' E 139°39'3 5.6
2017-May-13 11:31N 35°28' E 139°42'3 6.1
2017-May-13 11:00N 35°28' E 139°39'0 1.0
2017-May-13 10:31N 35°27' E 139°39'1 1.0
2017-May-13 10:00N 35°27' E 139°39'0 0.0
2017-May-13 09:30N 35°27' E 139°39'0 0.0
2017-May-13 09:00N 35°27' E 139°39'0 0.0
2017-May-13 08:31N 35°27' E 139°39'3 5.5
2017-May-13 08:01N 35°28' E 139°42'3 5.2
2017-May-13 07:30N 35°27' E 139°39'1 1.3
2017-May-13 07:00N 35°27' E 139°39'0 0.0
2017-May-13 06:30N 35°27' E 139°39'3 5.7
2017-May-13 06:00N 35°28' E 139°42'3 5.7
2017-May-13 05:31N 35°27' E 139°39'0 0.0
2017-May-13 05:00N 35°27' E 139°39'  

Dump ship's entire track history